Time;durP1;ratioP1;P1;durP2;ratioP2;P2;SDS_P1;SDS_P2;PMS_P1;PMS_P2;Temp;Humidity;BMP_temperature;BMP_pressure;BME280_temperature;BME280_humidity;BME280_pressure;Samples;Min_cycle;Max_cycle;Signal;HPM_P1;HPM_P2
2021/11/11 00:00:09;;;;;;;1086.95;999.90;;;;;;;4.26;70.68;101961.44;698399;28;23419;-66
2021/11/11 00:00:34;;;;;;;1084.82;999.90;;;;;;;4.23;70.80;101958.09;695419;28;136320;-66
2021/11/11 00:00:55;;;;;;;1089.03;999.90;;;;;;;4.22;70.74;101959.06;697434;28;67057;-66
2021/11/11 00:01:17;;;;;;;1084.97;999.90;;;;;;;4.20;70.97;101960.97;698414;28;23447;-66
2021/11/11 00:01:40;;;;;;;1084.55;999.90;;;;;;;4.17;70.86;101955.84;698612;28;45451;-66
2021/11/11 00:02:03;;;;;;;1084.07;999.90;;;;;;;4.15;70.84;101955.94;697661;28;44228;-66
2021/11/11 00:02:24;;;;;;;1084.15;999.90;;;;;;;4.11;70.83;101955.31;696445;28;92156;-66
2021/11/11 00:02:47;;;;;;;1078.05;999.90;;;;;;;4.10;70.92;101966.09;698916;28;15967;-66
2021/11/11 00:03:09;;;;;;;1081.63;999.90;;;;;;;4.08;70.84;101962.69;699334;28;22428;-66
2021/11/11 00:03:30;;;;;;;1084.70;999.90;;;;;;;4.04;70.82;101962.00;698496;28;45129;-66
2021/11/11 00:03:51;;;;;;;1084.00;999.90;;;;;;;4.05;70.82;101954.88;698031;28;46390;-66
2021/11/11 00:04:16;;;;;;;1085.32;999.90;;;;;;;4.05;71.00;101960.22;698733;28;23494;-66
2021/11/11 00:04:38;;;;;;;1087.70;999.90;;;;;;;4.04;71.11;101963.84;696657;28;108221;-66
2021/11/11 00:04:59;;;;;;;1084.38;999.90;;;;;;;4.04;71.04;101956.66;698434;28;46320;-67
2021/11/11 00:05:20;;;;;;;1088.95;999.90;;;;;;;4.05;71.04;101961.06;698859;28;22396;-66
2021/11/11 00:05:42;;;;;;;1085.88;999.90;;;;;;;4.05;71.15;101953.03;699568;28;23398;-66
2021/11/11 00:06:04;;;;;;;1087.88;999.90;;;;;;;4.11;71.25;101963.31;698843;28;22348;-66
2021/11/11 00:06:25;;;;;;;1083.70;999.90;;;;;;;4.12;71.41;101953.47;697819;28;46252;-67
2021/11/11 00:06:48;;;;;;;1088.85;999.90;;;;;;;4.13;71.59;101949.84;699204;28;21544;-66
2021/11/11 00:07:11;;;;;;;1084.50;999.90;;;;;;;4.13;71.50;101950.69;696830;28;89646;-67
2021/11/11 00:07:33;;;;;;;1086.68;999.90;;;;;;;4.16;71.40;101955.00;698364;28;44173;-67
2021/11/11 00:07:54;;;;;;;1081.15;999.90;;;;;;;4.17;71.42;101953.16;697329;28;70720;-66
2021/11/11 00:08:16;;;;;;;1083.32;999.90;;;;;;;4.18;71.49;101958.41;698150;28;22385;-67
2021/11/11 00:08:38;;;;;;;1083.47;999.90;;;;;;;4.19;71.52;101954.78;698434;28;45249;-66
2021/11/11 00:08:59;;;;;;;1082.50;999.90;;;;;;;4.19;71.42;101946.75;698336;28;45267;-66
2021/11/11 00:09:20;;;;;;;1070.38;999.28;;;;;;;4.19;71.15;101954.78;699334;28;21565;-66
2021/11/11 00:09:41;;;;;;;1062.28;991.83;;;;;;;4.18;71.22;101950.38;699547;28;22393;-66
2021/11/11 00:10:04;;;;;;;1078.80;999.90;;;;;;;4.15;71.15;101955.94;698815;28;21541;-67
2021/11/11 00:10:27;;;;;;;1090.07;999.90;;;;;;;4.12;71.02;101953.47;699684;28;13400;-66
2021/11/11 00:10:48;;;;;;;1083.40;999.90;;;;;;;4.09;71.00;101954.56;698553;28;46472;-67
2021/11/11 00:11:10;;;;;;;1089.68;999.90;;;;;;;4.08;71.11;101960.00;698587;28;22400;-66
2021/11/11 00:11:31;;;;;;;1075.50;999.90;;;;;;;4.06;70.97;101959.25;697736;28;46384;-66
2021/11/11 00:11:53;;;;;;;1084.03;999.90;;;;;;;4.04;70.93;101964.69;698775;28;45372;-66
2021/11/11 00:12:14;;;;;;;1078.82;999.90;;;;;;;4.04;71.14;101953.16;698744;28;22334;-66
2021/11/11 00:12:36;;;;;;;1076.53;999.90;;;;;;;4.03;71.10;101962.13;698596;28;23472;-66
2021/11/11 00:12:59;;;;;;;1079.78;999.90;;;;;;;4.03;71.14;101959.44;698708;28;45229;-66
2021/11/11 00:13:20;;;;;;;1082.93;999.90;;;;;;;4.02;71.09;101971.13;697566;28;68350;-66
2021/11/11 00:13:42;;;;;;;1083.60;999.90;;;;;;;4.03;71.20;101964.78;699609;28;21535;-67
2021/11/11 00:14:03;;;;;;;1074.47;999.90;;;;;;;4.03;71.15;101967.47;697850;28;44352;-66
2021/11/11 00:14:25;;;;;;;1081.68;999.90;;;;;;;4.01;71.21;101958.72;699821;28;9106;-66
2021/11/11 00:14:46;;;;;;;1083.00;999.90;;;;;;;4.02;70.96;101966.63;698255;28;44315;-66
2021/11/11 00:15:13;;;;;;;1077.88;999.90;;;;;;;4.01;70.83;101966.72;696956;28;45343;-66
2021/11/11 00:15:34;;;;;;;1075.55;999.90;;;;;;;4.01;70.71;101967.56;695072;28;115589;-68
2021/11/11 00:15:56;;;;;;;1073.22;999.90;;;;;;;4.02;70.70;101971.13;698617;28;22444;-68
2021/11/11 00:16:18;;;;;;;1071.85;999.90;;;;;;;4.02;70.84;101968.44;698068;28;45233;-69
2021/11/11 00:16:39;;;;;;;1077.72;999.90;;;;;;;4.02;70.75;101963.94;698689;28;46338;-68
2021/11/11 00:17:01;;;;;;;1080.28;999.90;;;;;;;4.02;70.77;101973.78;699439;28;22393;-69
2021/11/11 00:17:22;;;;;;;1072.68;999.90;;;;;;;4.01;70.84;101970.25;697886;28;44377;-68
2021/11/11 00:17:44;;;;;;;1073.05;999.90;;;;;;;4.00;70.82;101975.69;698609;28;22380;-69
2021/11/11 00:18:06;;;;;;;1077.15;999.90;;;;;;;3.98;70.84;101973.13;698202;28;46355;-69
2021/11/11 00:18:27;;;;;;;1082.72;999.90;;;;;;;3.99;70.75;101982.03;698310;28;46267;-68
2021/11/11 00:18:48;;;;;;;1086.45;999.90;;;;;;;3.94;70.81;101972.47;699437;28;22427;-68
2021/11/11 00:19:09;;;;;;;1079.45;999.90;;;;;;;3.95;70.89;101973.38;698353;28;46255;-68
2021/11/11 00:19:31;;;;;;;1075.25;999.90;;;;;;;3.93;70.67;101973.47;699212;28;21515;-68
2021/11/11 00:19:52;;;;;;;1076.38;999.90;;;;;;;3.94;70.83;101968.97;698177;28;44467;-68
2021/11/11 00:20:19;;;;;;;1085.43;999.90;;;;;;;3.97;70.85;101974.94;695757;28;92309;-68
2021/11/11 00:20:42;;;;;;;1071.68;999.90;;;;;;;3.95;70.87;101974.22;696515;28;92218;-66
2021/11/11 00:21:05;;;;;;;1078.35;999.90;;;;;;;3.97;70.74;101974.09;697824;28;45324;-66
2021/11/11 00:21:26;;;;;;;1080.75;999.90;;;;;;;3.97;70.74;101977.63;696662;28;92246;-66
2021/11/11 00:21:49;;;;;;;1082.57;999.90;;;;;;;3.95;70.71;101971.53;698447;28;23745;-66
2021/11/11 00:22:11;;;;;;;1088.47;999.90;;;;;;;3.94;70.43;101975.16;696735;28;70449;-66
2021/11/11 00:22:34;;;;;;;1090.20;999.90;;;;;;;3.92;70.44;101965.56;696346;28;92224;-66
2021/11/11 00:22:57;;;;;;;1091.73;999.90;;;;;;;3.93;70.33;101959.22;694806;28;46565;-66
2021/11/11 00:23:19;;;;;;;1083.63;999.90;;;;;;;3.92;70.65;101969.06;696184;28;46362;-65
2021/11/11 00:23:40;;;;;;;1086.93;999.90;;;;;;;3.90;70.41;101964.78;699523;28;25073;-66
2021/11/11 00:24:01;;;;;;;1089.60;999.90;;;;;;;3.89;70.56;101968.44;698471;28;22407;-66
2021/11/11 00:24:22;;;;;;;1089.50;999.90;;;;;;;3.86;70.47;101969.47;698038;28;44298;-66
2021/11/11 00:24:44;;;;;;;1092.60;999.90;;;;;;;3.86;70.50;101963.28;699184;28;22399;-66
2021/11/11 00:25:07;;;;;;;1090.85;999.90;;;;;;;3.85;70.69;101973.09;697703;28;44277;-66
2021/11/11 00:25:29;;;;;;;1088.90;999.90;;;;;;;3.84;70.75;101966.06;697836;28;44426;-66
2021/11/11 00:25:50;;;;;;;1089.78;999.90;;;;;;;3.85;70.69;101967.75;698394;28;44362;-66
2021/11/11 00:26:12;;;;;;;1091.25;999.90;;;;;;;3.84;70.75;101976.75;698915;28;22373;-66
2021/11/11 00:26:34;;;;;;;1078.82;999.90;;;;;;;3.86;70.79;101976.66;696680;28;90725;-66
2021/11/11 00:26:55;;;;;;;1085.68;999.90;;;;;;;3.86;70.73;101969.47;696487;28;22371;-66
2021/11/11 00:27:16;;;;;;;1087.90;999.90;;;;;;;3.84;70.67;101973.19;696594;28;22186;-66
2021/11/11 00:27:39;;;;;;;1089.90;999.90;;;;;;;3.85;70.62;101972.25;696060;28;20719;-66
2021/11/11 00:28:00;;;;;;;1080.57;999.90;;;;;;;3.85;70.83;101966.91;694894;28;67278;-66
2021/11/11 00:28:22;;;;;;;1077.82;999.90;;;;;;;3.87;70.77;101970.31;696051;28;22478;-66
2021/11/11 00:28:44;;;;;;;1076.75;999.90;;;;;;;3.87;70.88;101963.19;692720;28;46384;-66
2021/11/11 00:29:06;;;;;;;1081.85;999.90;;;;;;;3.90;70.94;101971.00;695828;28;22371;-66
2021/11/11 00:29:27;;;;;;;1079.78;999.90;;;;;;;3.88;71.02;101964.88;695838;28;70529;-66
2021/11/11 00:29:48;;;;;;;1078.63;999.90;;;;;;;3.91;71.01;101969.16;695755;28;22386;-65
2021/11/11 00:30:11;;;;;;;1087.05;999.90;;;;;;;3.92;71.04;101968.22;695711;28;23393;-65
2021/11/11 00:30:34;;;;;;;1084.50;999.90;;;;;;;3.94;71.02;101967.13;691849;28;69521;-66
2021/11/11 00:30:55;;;;;;;1085.55;999.90;;;;;;;4.00;71.17;101967.66;694549;28;46167;-66
2021/11/11 00:31:16;;;;;;;1074.35;999.90;;;;;;;4.01;71.24;101966.72;692370;28;45210;-66
2021/11/11 00:31:37;;;;;;;1081.07;999.90;;;;;;;4.06;71.21;101962.78;694192;28;21550;-66
2021/11/11 00:31:59;;;;;;;1078.78;999.90;;;;;;;4.09;71.28;101967.94;695586;28;23430;-66
2021/11/11 00:32:21;;;;;;;1084.30;999.90;;;;;;;4.11;71.30;101966.00;694795;28;45263;-66
2021/11/11 00:32:42;;;;;;;1084.53;999.90;;;;;;;4.15;71.24;101961.28;693950;28;21520;-66
2021/11/11 00:33:04;;;;;;;1080.00;999.90;;;;;;;4.17;71.38;101966.53;693057;28;44351;-66
2021/11/11 00:33:25;;;;;;;1079.82;999.90;;;;;;;4.15;71.31;101962.16;693005;28;18729;-66
2021/11/11 00:33:46;;;;;;;1082.78;999.90;;;;;;;4.14;71.41;101957.75;693798;28;23696;-66
2021/11/11 00:34:07;;;;;;;1083.93;999.90;;;;;;;4.17;71.32;101956.72;695833;28;22381;-66
2021/11/11 00:34:28;;;;;;;1078.03;999.90;;;;;;;4.18;71.34;101961.06;695832;28;23527;-66
2021/11/11 00:34:52;;;;;;;1088.57;999.90;;;;;;;4.19;71.23;101952.09;698815;28;22360;-66
2021/11/11 00:35:16;;;;;;;1090.90;999.90;;;;;;;4.19;70.85;101960.13;689982;28;90547;-66
2021/11/11 00:35:38;;;;;;;1090.85;999.90;;;;;;;4.16;70.83;101960.34;689782;28;90403;-66
2021/11/11 00:35:59;;;;;;;1085.75;999.90;;;;;;;4.14;70.85;101951.56;689772;28;46102;-65
2021/11/11 00:36:22;;;;;;;1098.93;999.90;;;;;;;4.13;70.67;101961.38;692807;28;23400;-66
2021/11/11 00:36:44;;;;;;;1094.97;999.90;;;;;;;4.13;70.56;101957.88;692473;28;67422;-66
2021/11/11 00:37:07;;;;;;;1092.53;999.90;;;;;;;4.12;70.34;101964.16;693491;28;44506;-66
2021/11/11 00:37:29;;;;;;;1080.28;999.90;;;;;;;4.10;70.38;101956.25;689010;28;68607;-66
2021/11/11 00:37:50;;;;;;;1085.63;999.90;;;;;;;4.10;70.19;101968.78;691143;28;44892;-66
2021/11/11 00:38:12;;;;;;;1090.65;999.90;;;;;;;4.10;70.20;101966.09;688035;28;32656;-66
2021/11/11 00:38:34;;;;;;;1089.00;999.90;;;;;;;4.09;70.01;101969.72;683071;28;46441;-66
2021/11/11 00:38:55;;;;;;;1086.50;999.90;;;;;;;4.06;69.96;101968.13;683210;28;46403;-65
2021/11/11 00:39:16;;;;;;;1086.32;999.90;;;;;;;4.05;69.86;101969.09;681745;28;22443;-66
2021/11/11 00:39:37;;;;;;;1083.90;999.90;;;;;;;4.04;69.90;101971.88;685144;28;22224;-66
2021/11/11 00:39:59;;;;;;;1085.43;999.90;;;;;;;4.05;69.88;101976.25;688906;28;22641;-66
2021/11/11 00:40:20;;;;;;;1079.10;999.90;;;;;;;4.04;70.12;101971.88;693399;28;29121;-66
2021/11/11 00:40:42;;;;;;;1079.05;999.90;;;;;;;4.02;70.12;101971.13;696205;28;22549;-66
2021/11/11 00:41:03;;;;;;;1088.47;999.90;;;;;;;4.01;70.10;101970.25;696891;28;4099;-66
2021/11/11 00:41:25;;;;;;;1087.03;999.90;;;;;;;4.02;70.25;101971.13;696710;28;22396;-66
2021/11/11 00:41:46;;;;;;;1078.38;999.90;;;;;;;4.02;70.42;101971.13;694458;28;67490;-66
2021/11/11 00:42:07;;;;;;;1081.20;999.90;;;;;;;4.02;70.38;101965.78;697123;28;1651;-66
2021/11/11 00:42:28;;;;;;;1082.40;999.90;;;;;;;4.03;70.36;101975.50;693187;28;21591;-66
2021/11/11 00:42:50;;;;;;;1086.40;999.90;;;;;;;4.03;70.56;101967.47;690477;28;22326;-66
2021/11/11 00:43:11;;;;;;;1090.28;999.90;;;;;;;4.02;70.48;101968.44;688078;28;44338;-66
2021/11/11 00:43:33;;;;;;;1085.28;999.90;;;;;;;4.01;70.73;101966.72;688628;28;24345;-66
2021/11/11 00:43:54;;;;;;;1076.68;999.90;;;;;;;4.01;70.58;101964.06;688063;28;46286;-66
2021/11/11 00:44:16;;;;;;;1080.45;999.90;;;;;;;4.00;70.71;101965.00;691797;28;22406;-66
2021/11/11 00:44:37;;;;;;;1086.93;999.90;;;;;;;4.00;70.84;101965.00;693046;28;44580;-66
2021/11/11 00:44:59;;;;;;;1081.38;999.90;;;;;;;3.99;70.88;101974.00;693946;28;22375;-66
2021/11/11 00:45:21;;;;;;;1081.38;999.90;;;;;;;3.97;70.90;101969.59;694576;28;67557;-66
2021/11/11 00:45:42;;;;;;;1092.10;999.90;;;;;;;3.95;70.90;101966.19;691865;28;45237;-66
2021/11/11 00:46:03;;;;;;;1087.60;999.90;;;;;;;3.95;70.97;101962.66;691513;28;22396;-66
2021/11/11 00:46:24;;;;;;;1074.63;999.90;;;;;;;3.94;70.88;101967.13;693489;28;21493;-66
2021/11/11 00:46:46;;;;;;;1085.40;999.90;;;;;;;3.93;70.87;101967.25;691285;28;22370;-66
2021/11/11 00:47:07;;;;;;;1088.30;999.90;;;;;;;3.90;70.90;101956.75;688937;28;46271;-66
2021/11/11 00:47:29;;;;;;;1080.35;999.90;;;;;;;3.90;70.88;101964.78;687475;28;44351;-66
2021/11/11 00:47:51;;;;;;;1082.25;999.90;;;;;;;3.88;70.90;101956.84;690057;28;21524;-65
2021/11/11 00:48:12;;;;;;;1080.03;999.90;;;;;;;3.85;70.90;101962.41;688710;28;44320;-65
2021/11/11 00:48:34;;;;;;;1084.35;999.90;;;;;;;3.83;70.86;101956.31;688890;28;46317;-66
2021/11/11 00:48:55;;;;;;;1082.57;999.90;;;;;;;3.82;70.79;101961.78;691859;28;22361;-66
2021/11/11 00:49:17;;;;;;;1076.03;999.90;;;;;;;3.79;70.92;101953.00;690599;28;46309;-66
2021/11/11 00:49:38;;;;;;;1080.33;999.90;;;;;;;3.76;70.90;101953.22;693730;28;21453;-66
2021/11/11 00:49:59;;;;;;;1079.03;999.90;;;;;;;3.76;71.00;101960.34;694158;28;5071;-66
2021/11/11 00:50:23;;;;;;;1084.50;999.90;;;;;;;3.74;71.00;101956.94;696142;28;22078;-66
2021/11/11 00:50:45;;;;;;;1083.63;999.90;;;;;;;3.72;70.93;101961.53;693045;28;92257;-66
2021/11/11 00:51:06;;;;;;;1086.93;999.90;;;;;;;3.71;71.00;101951.78;695478;28;22333;-66
2021/11/11 00:51:28;;;;;;;1095.75;999.90;;;;;;;3.71;70.86;101959.81;695964;28;23436;-66
2021/11/11 00:51:49;;;;;;;1090.13;999.90;;;;;;;3.69;70.84;101962.59;694901;28;45330;-66
2021/11/11 00:52:11;;;;;;;1090.93;999.90;;;;;;;3.68;70.97;101962.69;695843;28;21072;-66
2021/11/11 00:52:33;;;;;;;1088.18;999.90;;;;;;;3.67;70.82;101960.97;692287;28;46346;-66
2021/11/11 00:52:55;;;;;;;1082.05;999.90;;;;;;;3.66;70.86;101964.63;692881;28;45279;-66
2021/11/11 00:53:16;;;;;;;1087.50;999.90;;;;;;;3.64;70.75;101961.16;691999;28;40968;-66
2021/11/11 00:53:37;;;;;;;1080.85;999.90;;;;;;;3.62;71.00;101953.28;693873;28;22376;-66
2021/11/11 00:53:59;;;;;;;1079.25;999.90;;;;;;;3.65;70.90;101958.38;693022;28;22397;-66
2021/11/11 00:54:21;;;;;;;1085.18;999.90;;;;;;;3.67;71.01;101963.63;691545;28;43961;-66
2021/11/11 00:54:45;;;;;;;1086.05;999.90;;;;;;;3.66;71.28;101960.13;689700;28;66792;-66
2021/11/11 00:55:19;;;;;;;1089.47;999.90;;;;;;;3.67;71.13;101959.16;685929;28;137572;-66
2021/11/11 00:55:44;;;;;;;1086.72;999.90;;;;;;;3.67;71.35;101961.84;687147;28;116929;-66
2021/11/11 00:56:11;;;;;;;1094.97;999.90;;;;;;;3.67;71.36;101959.16;682391;28;135590;-67
2021/11/11 00:56:35;;;;;;;1089.53;999.90;;;;;;;3.68;71.39;101958.19;682513;28;91844;-67
2021/11/11 00:56:58;;;;;;;1089.38;999.90;;;;;;;3.70;71.60;101958.09;683371;28;44352;-67
2021/11/11 00:57:19;;;;;;;1086.13;999.90;;;;;;;3.71;71.54;101955.31;683909;28;23510;-67
2021/11/11 00:57:41;;;;;;;1083.95;999.90;;;;;;;3.70;71.44;101953.63;685983;28;1538;-67
2021/11/11 00:58:02;;;;;;;1078.65;999.90;;;;;;;3.71;71.47;101957.97;684658;28;45229;-67
2021/11/11 00:58:23;;;;;;;1083.95;999.90;;;;;;;3.72;71.48;101959.72;688393;28;21565;-67
2021/11/11 00:58:44;;;;;;;1080.40;999.90;;;;;;;3.73;71.51;101957.88;690446;28;22395;-67
2021/11/11 00:59:06;;;;;;;1074.85;999.90;;;;;;;3.73;71.58;101949.88;688761;28;22372;-67
2021/11/11 00:59:29;;;;;;;1086.63;999.90;;;;;;;3.73;71.54;101953.41;684102;28;69429;-67
2021/11/11 00:59:50;;;;;;;1089.50;999.90;;;;;;;3.73;71.50;101955.22;685607;28;46334;-67
2021/11/11 01:00:13;;;;;;;1090.15;999.90;;;;;;;3.73;71.62;101953.41;688690;28;22411;-67
2021/11/11 01:00:36;;;;;;;1085.65;999.90;;;;;;;3.74;71.51;101949.75;687077;28;74998;-67
2021/11/11 01:01:00;;;;;;;1082.50;999.90;;;;;;;3.74;71.45;101949.75;687432;28;67476;-67
2021/11/11 01:01:22;;;;;;;1072.03;999.90;;;;;;;3.74;71.57;101952.44;687892;28;54685;-67
2021/11/11 01:01:43;;;;;;;1080.50;999.90;;;;;;;3.75;71.59;101947.97;685796;28;46303;-67
2021/11/11 01:02:08;;;;;;;1076.90;999.90;;;;;;;3.75;71.48;101947.97;688380;28;23503;-67
2021/11/11 01:02:29;;;;;;;1086.68;999.90;;;;;;;3.76;71.42;101947.00;686597;28;87041;-66
2021/11/11 01:02:51;;;;;;;1081.32;999.90;;;;;;;3.76;71.42;101947.00;685889;28;24376;-67
2021/11/11 01:03:13;;;;;;;1074.10;999.90;;;;;;;3.76;71.30;101950.53;686798;28;68313;-67
2021/11/11 01:03:40;;;;;;;1077.13;999.90;;;;;;;3.77;71.41;101948.72;692479;28;1702;-67
2021/11/11 01:04:01;;;;;;;1084.00;999.90;;;;;;;3.77;71.41;101938.88;685629;28;159278;-67
2021/11/11 01:04:23;;;;;;;1086.00;999.90;;;;;;;3.78;71.29;101948.63;687943;28;1642;-67
2021/11/11 01:04:44;;;;;;;1085.68;999.90;;;;;;;3.79;71.24;101939.66;689778;28;22383;-67
2021/11/11 01:05:07;;;;;;;1085.47;999.90;;;;;;;3.79;71.29;101942.31;690629;28;22476;-67
2021/11/11 01:05:28;;;;;;;1089.50;999.90;;;;;;;3.81;71.29;101938.66;685730;28;92191;-67
2021/11/11 01:05:51;;;;;;;1082.22;999.90;;;;;;;3.81;71.14;101941.34;687926;28;46462;-67
2021/11/11 01:06:13;;;;;;;1077.13;999.90;;;;;;;3.80;71.19;101940.50;692474;28;46728;-67
2021/11/11 01:06:34;;;;;;;1075.18;999.90;;;;;;;3.80;71.22;101945.84;691000;28;44262;-67
2021/11/11 01:06:55;;;;;;;1082.35;999.90;;;;;;;3.79;71.04;101939.66;688936;28;22703;-67
2021/11/11 01:07:19;;;;;;;1094.15;999.90;;;;;;;3.79;71.10;101936.09;689765;28;23653;-67
2021/11/11 01:07:42;;;;;;;1097.35;999.90;;;;;;;3.80;71.36;101940.50;689114;28;91222;-67
2021/11/11 01:08:03;;;;;;;1088.78;999.90;;;;;;;3.80;71.34;101932.47;690422;28;70532;-67
2021/11/11 01:08:26;;;;;;;1085.40;999.90;;;;;;;3.80;71.23;101937.81;693272;28;21512;-67
2021/11/11 01:08:47;;;;;;;1081.53;999.90;;;;;;;3.79;71.43;101942.31;692190;28;69403;-67
2021/11/11 01:09:09;;;;;;;1076.45;999.90;;;;;;;3.79;71.53;101939.66;694342;28;23250;-67
2021/11/11 01:09:31;;;;;;;1085.40;999.90;;;;;;;3.79;71.33;101942.31;693642;28;23272;-67
2021/11/11 01:09:52;;;;;;;1077.90;999.90;;;;;;;3.78;71.34;101943.25;693453;28;22432;-67
2021/11/11 01:10:15;;;;;;;1079.00;999.90;;;;;;;3.77;71.21;101936.19;693427;28;22443;-66
2021/11/11 01:10:37;;;;;;;1084.65;999.90;;;;;;;3.76;71.08;101941.66;691872;28;69745;-67
2021/11/11 01:11:00;;;;;;;1085.72;999.90;;;;;;;3.75;71.01;101938.13;691386;28;67596;-67
2021/11/11 01:11:21;;;;;;;1079.90;999.90;;;;;;;3.74;70.81;101944.41;687820;28;45020;-67
2021/11/11 01:11:43;;;;;;;1073.05;999.90;;;;;;;3.71;70.87;101947.28;689543;28;23730;-67
2021/11/11 01:12:06;;;;;;;1077.15;999.90;;;;;;;3.70;70.63;101940.25;688429;28;46345;-67
2021/11/11 01:12:27;;;;;;;1083.35;999.90;;;;;;;3.68;70.64;101943.97;687339;28;69415;-67
2021/11/11 01:12:50;;;;;;;1076.15;999.90;;;;;;;3.66;70.54;101945.91;688468;28;44357;-67
2021/11/11 01:13:12;;;;;;;1071.07;999.83;;;;;;;3.65;70.58;101938.84;689721;28;45077;-67
2021/11/11 01:13:33;;;;;;;1075.57;999.90;;;;;;;3.63;70.51;101944.28;690288;28;46428;-67
2021/11/11 01:13:55;;;;;;;1081.75;999.90;;;;;;;3.60;70.35;101940.03;690303;28;46289;-67
2021/11/11 01:14:17;;;;;;;1078.63;999.90;;;;;;;3.56;70.56;101943.84;691109;28;47662;-67
2021/11/11 01:14:39;;;;;;;1080.15;999.90;;;;;;;3.55;70.29;101947.47;690767;28;23399;-67
2021/11/11 01:15:01;;;;;;;1090.20;999.90;;;;;;;3.54;70.53;101943.09;689446;28;46392;-67
2021/11/11 01:15:25;;;;;;;1087.18;999.90;;;;;;;3.53;70.86;101946.72;692784;28;44297;-67
2021/11/11 01:15:47;;;;;;;1082.43;999.90;;;;;;;3.53;70.72;101951.22;693922;28;92305;-67
2021/11/11 01:16:08;;;;;;;1087.22;999.90;;;;;;;3.54;70.89;101947.56;692934;28;4078;-67
2021/11/11 01:16:29;;;;;;;1085.78;999.90;;;;;;;3.52;70.89;101936.97;693235;28;46409;-67
2021/11/11 01:16:52;;;;;;;1080.97;999.90;;;;;;;3.53;71.10;101948.53;692918;28;23391;-67
2021/11/11 01:17:14;;;;;;;1085.00;999.90;;;;;;;3.51;71.02;101943.31;692865;28;68342;-67
2021/11/11 01:17:35;;;;;;;1084.20;999.90;;;;;;;3.51;71.06;101942.44;694622;28;46255;-67
2021/11/11 01:17:57;;;;;;;1085.55;999.90;;;;;;;3.46;70.98;101934.72;696256;28;21266;-67
2021/11/11 01:18:18;;;;;;;1075.55;999.90;;;;;;;3.50;70.89;101940.75;697023;28;46372;-67
2021/11/11 01:18:40;;;;;;;1086.07;999.90;;;;;;;3.47;70.72;101941.78;699051;28;23471;-67
2021/11/11 01:19:01;;;;;;;1083.50;999.90;;;;;;;3.46;71.09;101945.41;697380;28;46370;-67
2021/11/11 01:19:23;;;;;;;1075.70;999.90;;;;;;;3.47;70.90;101935.59;698443;28;21188;-67
2021/11/11 01:19:44;;;;;;;1075.15;999.90;;;;;;;3.51;70.87;101939.75;695877;28;21441;-67
2021/11/11 01:20:08;;;;;;;1078.75;999.90;;;;;;;3.50;70.94;101938.91;697087;28;22201;-67
2021/11/11 01:20:30;;;;;;;1083.40;999.90;;;;;;;3.51;71.05;101942.44;693146;28;92306;-67
2021/11/11 01:20:51;;;;;;;1079.68;999.90;;;;;;;3.50;70.96;101941.59;689592;28;43376;-67
2021/11/11 01:21:13;;;;;;;1083.22;999.90;;;;;;;3.50;70.78;101944.25;690171;28;42418;-67
2021/11/11 01:21:35;;;;;;;1083.90;999.90;;;;;;;3.49;70.75;101934.50;692871;28;45251;-67
2021/11/11 01:21:56;;;;;;;1074.32;999.90;;;;;;;3.48;70.58;101948.84;695498;28;45231;-67
2021/11/11 01:22:19;;;;;;;1085.30;999.90;;;;;;;3.45;70.57;101932.16;694773;28;46265;-67
2021/11/11 01:22:41;;;;;;;1091.40;999.90;;;;;;;3.45;70.57;101942.84;695362;28;46129;-67
2021/11/11 01:23:04;;;;;;;1083.65;999.90;;;;;;;3.44;70.42;101952.66;696225;28;68311;-67
2021/11/11 01:23:25;;;;;;;1084.80;999.90;;;;;;;3.42;70.54;101936.75;693605;28;44376;-67
2021/11/11 01:23:47;;;;;;;1086.18;999.90;;;;;;;3.43;70.43;101942.94;696458;28;21505;-67
2021/11/11 01:24:08;;;;;;;1080.93;999.90;;;;;;;3.42;70.57;101941.25;691497;28;47309;-67
2021/11/11 01:24:30;;;;;;;1083.30;999.90;;;;;;;3.41;70.56;101937.69;693121;28;24181;-67
2021/11/11 01:24:51;;;;;;;1080.13;999.90;;;;;;;3.42;70.65;101951.91;695153;28;46293;-67
2021/11/11 01:25:15;;;;;;;1075.40;999.90;;;;;;;3.42;70.58;101946.59;695760;28;22399;-67
2021/11/11 01:25:38;;;;;;;1084.13;999.90;;;;;;;3.41;70.68;101936.84;695052;28;115085;-67
2021/11/11 01:26:00;;;;;;;1085.13;999.90;;;;;;;3.42;70.82;101950.09;697216;28;45259;-67
2021/11/11 01:26:23;;;;;;;1079.28;999.90;;;;;;;3.43;70.76;101953.63;693647;28;92275;-67
2021/11/11 01:26:46;;;;;;;1091.65;999.90;;;;;;;3.40;71.01;101940.47;692055;28;67561;-67
2021/11/11 01:27:07;;;;;;;1087.28;999.90;;;;;;;3.42;71.06;101946.59;693815;28;1319;-67
2021/11/11 01:27:28;;;;;;;1087.60;999.90;;;;;;;3.43;71.13;101953.63;692098;28;21534;-67
2021/11/11 01:27:51;;;;;;;1089.05;999.90;;;;;;;3.43;71.16;101949.16;688500;28;22386;-67
2021/11/11 01:28:27;;;;;;;1086.63;999.90;;;;;;;3.42;71.11;101946.59;684013;28;137661;-67
2021/11/11 01:28:50;;;;;;;1077.35;999.90;;;;;;;3.42;71.17;101952.78;688580;28;68339;-67
2021/11/11 01:29:16;;;;;;;1083.68;999.90;;;;;;;3.42;71.27;101938.56;687911;28;113654;-69
2021/11/11 01:29:38;;;;;;;1084.68;999.90;;;;;;;3.42;71.21;101941.25;691163;28;68163;-67
2021/11/11 01:29:59;;;;;;;1082.10;999.90;;;;;;;3.40;71.30;101945.81;691177;28;45263;-67
2021/11/11 01:30:21;;;;;;;1087.93;999.90;;;;;;;3.41;71.39;101939.50;688462;28;66490;-67
2021/11/11 01:30:47;;;;;;;1085.50;999.90;;;;;;;3.41;71.49;101937.69;687732;28;113503;-67
2021/11/11 01:31:21;;;;;;;1086.32;999.90;;;;;;;3.39;71.41;101934.28;689608;28;157374;-67
2021/11/11 01:31:45;;;;;;;1085.18;999.90;;;;;;;3.40;71.36;101941.34;692412;28;67447;-67
2021/11/11 01:32:08;;;;;;;1084.07;999.90;;;;;;;3.40;71.50;101930.66;691342;28;46306;-67
2021/11/11 01:32:29;;;;;;;1082.20;999.90;;;;;;;3.42;71.44;101938.56;690245;28;69757;-67
2021/11/11 01:32:50;;;;;;;1078.20;999.90;;;;;;;3.40;71.35;101933.31;694579;28;22413;-67
2021/11/11 01:33:14;;;;;;;1079.75;999.90;;;;;;;3.40;71.48;101936.00;691159;28;69411;-67
2021/11/11 01:33:35;;;;;;;1085.13;999.90;;;;;;;3.40;71.38;101937.78;691917;28;2415;-67
2021/11/11 01:34:00;;;;;;;1095.75;999.90;;;;;;;3.38;71.29;101932.56;686942;28;93025;-67
2021/11/11 01:34:26;;;;;;;1085.28;999.90;;;;;;;3.38;71.33;101926.38;686130;28;68357;-67
2021/11/11 01:34:48;;;;;;;1084.05;999.90;;;;;;;3.37;71.19;101929.97;680413;28;137999;-67
2021/11/11 01:35:10;;;;;;;1084.28;999.90;;;;;;;3.35;71.07;101930.06;684677;28;45362;-67
2021/11/11 01:35:33;;;;;;;1078.80;999.90;;;;;;;3.34;71.02;101923.03;685043;28;46337;-67
2021/11/11 01:35:56;;;;;;;1085.13;999.90;;;;;;;3.35;70.81;101924.75;682235;28;115384;-67
2021/11/11 01:36:28;;;;;;;1086.95;999.90;;;;;;;3.32;70.63;101924.94;682152;28;138222;-67
2021/11/11 01:36:55;;;;;;;1085.07;999.90;;;;;;;3.30;70.53;101918.00;682153;28;138111;-67
2021/11/11 01:37:16;;;;;;;1085.47;999.90;;;;;;;3.28;70.65;101930.59;688362;28;46235;-67
2021/11/11 01:37:47;;;;;;;1086.72;999.90;;;;;;;3.27;70.40;101926.22;685338;28;135743;-67
2021/11/11 01:38:09;;;;;;;1079.07;999.90;;;;;;;3.24;70.43;101924.59;689382;28;92574;-67
2021/11/11 01:38:32;;;;;;;1071.57;999.90;;;;;;;3.23;70.46;101931.75;694618;28;21498;-67
2021/11/11 01:38:55;;;;;;;1085.43;999.90;;;;;;;3.22;70.36;101929.19;690887;28;92058;-66
2021/11/11 01:39:20;;;;;;;1084.53;999.90;;;;;;;3.22;70.67;101918.50;686975;28;138178;-66
2021/11/11 01:39:51;;;;;;;1090.72;999.90;;;;;;;3.21;70.78;101922.13;688795;28;139148;-66
2021/11/11 01:40:15;;;;;;;1082.93;999.90;;;;;;;3.20;70.76;101923.09;685122;28;91797;-67